createdAt,value
2024-05-09T00:00:15.975Z,97.64
2024-05-09T00:01:11.012Z,97.54
2024-05-09T00:02:10.046Z,97.39
2024-05-09T00:03:11.412Z,97.60
2024-05-09T00:04:09.936Z,97.08
2024-05-09T00:05:10.056Z,97.24
2024-05-09T00:06:10.200Z,97.33
2024-05-09T00:07:09.895Z,97.24
2024-05-09T00:08:10.252Z,97.44
2024-05-09T00:09:09.834Z,97.44
2024-05-09T00:10:17.834Z,97.44
2024-05-09T00:11:11.031Z,97.24
2024-05-09T00:12:09.939Z,97.24
2024-05-09T00:13:10.415Z,97.44
2024-05-09T00:14:09.827Z,97.24
2024-05-09T00:15:09.756Z,97.13
2024-05-09T00:16:09.774Z,97.44
2024-05-09T00:17:09.826Z,97.54
2024-05-09T00:18:10.001Z,97.44
2024-05-09T00:19:09.947Z,97.13
2024-05-09T00:20:17.486Z,97.13
2024-05-09T00:21:10.885Z,97.44
2024-05-09T00:22:09.677Z,97.03
2024-05-09T00:23:09.828Z,96.83
2024-05-09T00:24:09.653Z,97.44
2024-05-09T00:25:09.677Z,97.54
2024-05-09T00:26:09.663Z,96.51
2024-05-09T00:27:12.683Z,96.83
2024-05-09T00:28:09.630Z,97.69
2024-05-09T00:29:09.680Z,97.24
2024-05-09T00:30:14.363Z,97.24
2024-05-09T00:31:10.603Z,97.49
2024-05-09T00:32:09.653Z,97.24
2024-05-09T00:33:10.884Z,97.44
2024-05-09T00:34:09.888Z,97.28
2024-05-09T00:35:09.570Z,97.49
2024-05-09T00:36:09.518Z,97.08
2024-05-09T00:37:09.536Z,97.08
2024-05-09T00:38:09.588Z,96.87
2024-05-09T00:39:09.493Z,97.03
2024-05-09T00:40:15.110Z,97.08
2024-05-09T00:41:10.533Z,97.03
2024-05-09T00:42:09.451Z,96.87
2024-05-09T00:43:09.447Z,97.08
2024-05-09T00:44:09.481Z,97.28
2024-05-09T00:45:09.435Z,97.03
2024-05-09T00:46:09.403Z,96.87
2024-05-09T00:47:09.620Z,97.38
2024-05-09T00:48:10.601Z,96.97
2024-05-09T00:49:09.607Z,97.49
2024-05-09T00:50:12.866Z,97.58
2024-05-09T00:51:10.487Z,97.58
2024-05-09T00:52:09.337Z,97.28
2024-05-09T00:53:09.342Z,97.24
2024-05-09T00:54:09.329Z,97.24
2024-05-09T00:55:09.313Z,97.58
2024-05-09T00:56:09.380Z,97.24
2024-05-09T00:57:09.297Z,97.28
2024-05-09T00:58:09.281Z,97.28
2024-05-09T00:59:09.331Z,97.69
2024-05-09T01:00:18.452Z,96.77
2024-05-09T01:01:10.313Z,97.28
2024-05-09T01:02:09.383Z,97.28
2024-05-09T01:03:11.118Z,96.83
2024-05-09T01:04:09.473Z,96.97
2024-05-09T01:05:09.288Z,96.97
2024-05-09T01:06:09.293Z,97.28
2024-05-09T01:07:09.207Z,96.97
2024-05-09T01:08:09.651Z,97.38
2024-05-09T01:09:09.148Z,97.28
2024-05-09T01:10:14.310Z,96.87
2024-05-09T01:11:10.251Z,97.28
2024-05-09T01:12:09.483Z,96.97
2024-05-09T01:13:09.198Z,96.87
2024-05-09T01:14:09.145Z,96.56
2024-05-09T01:15:09.072Z,96.67
2024-05-09T01:16:09.076Z,96.77
2024-05-09T01:17:09.112Z,96.46
2024-05-09T01:18:09.591Z,96.87
2024-05-09T01:19:09.305Z,96.77
2024-05-09T01:20:12.858Z,96.67
2024-05-09T01:21:10.227Z,96.71
2024-05-09T01:22:09.007Z,96.71
2024-05-09T01:23:09.423Z,96.36
2024-05-09T01:24:08.966Z,96.81
2024-05-09T01:25:09.010Z,96.61
2024-05-09T01:26:09.092Z,96.87
2024-05-09T01:27:08.936Z,96.81
2024-05-09T01:28:08.930Z,96.92
2024-05-09T01:29:09.057Z,97.02
2024-05-09T01:30:11.973Z,97.42
2024-05-09T01:31:09.922Z,96.92
2024-05-09T01:32:08.979Z,97.42
2024-05-09T01:33:10.806Z,97.42
2024-05-09T01:34:08.906Z,97.02
2024-05-09T01:35:08.924Z,97.12
2024-05-09T01:36:08.830Z,96.92
2024-05-09T01:37:08.858Z,96.81
2024-05-09T01:38:08.830Z,96.92
2024-05-09T01:39:08.796Z,96.61
2024-05-09T01:40:12.322Z,96.61
2024-05-09T01:41:09.870Z,96.61
2024-05-09T01:42:08.764Z,96.81
2024-05-09T01:43:10.100Z,96.92
2024-05-09T01:44:08.772Z,96.96
2024-05-09T01:45:08.729Z,97.06
2024-05-09T01:46:08.715Z,97.47
2024-05-09T01:47:08.796Z,97.47
2024-05-09T01:48:09.074Z,97.67
2024-05-09T01:49:08.888Z,97.67
2024-05-09T01:50:10.809Z,96.96
2024-05-09T01:51:08.928Z,96.92
2024-05-09T01:52:08.650Z,96.96
2024-05-09T01:53:09.042Z,97.06
2024-05-09T01:54:08.620Z,96.96
2024-05-09T01:55:08.624Z,97.06
2024-05-09T01:56:08.633Z,97.06
2024-05-09T01:57:08.594Z,96.96
2024-05-09T01:58:08.614Z,97.37
2024-05-09T01:59:08.639Z,96.86
2024-05-09T02:00:10.307Z,96.96
2024-05-09T02:01:08.656Z,96.66
2024-05-09T02:02:08.708Z,96.66
2024-05-09T02:03:08.763Z,96.45
2024-05-09T02:04:08.740Z,96.66
2024-05-09T02:05:08.733Z,96.86
2024-05-09T02:06:08.753Z,97.11
2024-05-09T02:07:08.496Z,96.96
2024-05-09T02:08:08.516Z,96.86
2024-05-09T02:09:08.446Z,97.06
2024-05-09T02:10:13.729Z,96.45
2024-05-09T02:11:09.599Z,96.45
2024-05-09T02:12:08.681Z,96.34
2024-05-09T02:13:08.431Z,96.75
2024-05-09T02:14:08.471Z,96.39
2024-05-09T02:15:08.379Z,96.80
2024-05-09T02:16:08.366Z,96.49
2024-05-09T02:17:08.462Z,96.49
2024-05-09T02:18:08.857Z,96.96
2024-05-09T02:19:08.561Z,96.80
2024-05-09T02:20:13.147Z,96.49
2024-05-09T02:21:09.482Z,96.59
2024-05-09T02:22:08.308Z,96.70
2024-05-09T02:23:08.539Z,96.59
2024-05-09T02:24:08.310Z,96.59
2024-05-09T02:25:08.335Z,97.21
2024-05-09T02:26:08.346Z,97.21
2024-05-09T02:27:08.244Z,96.70
2024-05-09T02:28:08.230Z,96.80
2024-05-09T02:29:08.306Z,96.80
2024-05-09T02:30:18.463Z,96.39
2024-05-09T02:31:09.272Z,96.44
2024-05-09T02:32:08.283Z,96.84
2024-05-09T02:33:09.187Z,96.74
2024-05-09T02:34:08.236Z,96.74
2024-05-09T02:35:08.196Z,96.74
2024-05-09T02:36:08.149Z,96.84
2024-05-09T02:37:08.191Z,96.84
2024-05-09T02:38:08.173Z,96.95
2024-05-09T02:39:08.129Z,97.05
2024-05-09T02:40:11.711Z,96.95
2024-05-09T02:41:09.147Z,96.99
2024-05-09T02:42:08.090Z,97.09
2024-05-09T02:43:09.310Z,96.84
2024-05-09T02:44:08.095Z,96.99
2024-05-09T02:45:08.042Z,96.99
2024-05-09T02:46:08.024Z,96.99
2024-05-09T02:47:08.160Z,96.99
2024-05-09T02:48:08.247Z,96.99
2024-05-09T02:49:08.177Z,96.79
2024-05-09T02:50:08.373Z,97.20
2024-05-09T02:51:08.002Z,96.38
2024-05-09T02:52:07.953Z,96.38
2024-05-09T02:53:08.756Z,97.09
2024-05-09T02:54:07.942Z,97.20
2024-05-09T02:55:07.931Z,96.38
2024-05-09T02:56:07.997Z,96.48
2024-05-09T02:57:07.898Z,96.48
2024-05-09T02:58:07.883Z,96.48
2024-05-09T02:59:07.897Z,96.48
2024-05-09T03:00:15.083Z,96.58
2024-05-09T03:01:09.008Z,96.07
2024-05-09T03:02:07.932Z,96.28
2024-05-09T03:03:08.771Z,96.28
2024-05-09T03:04:08.021Z,97.30
2024-05-09T03:05:07.851Z,97.09
2024-05-09T03:06:07.793Z,97.14
2024-05-09T03:07:07.816Z,96.12
2024-05-09T03:08:07.988Z,97.04
2024-05-09T03:09:07.778Z,96.01
2024-05-09T03:10:18.029Z,97.34
2024-05-09T03:11:08.998Z,97.04
2024-05-09T03:12:07.825Z,96.12
2024-05-09T03:13:07.872Z,96.32
2024-05-09T03:14:07.760Z,97.04
2024-05-09T03:15:07.691Z,97.04
2024-05-09T03:16:07.699Z,96.94
2024-05-09T03:17:07.752Z,96.94
2024-05-09T03:18:07.969Z,96.94
2024-05-09T03:19:07.817Z,96.94
2024-05-09T03:20:17.002Z,96.94
2024-05-09T03:21:08.817Z,96.94
2024-05-09T03:22:07.643Z,96.53
2024-05-09T03:23:08.488Z,97.14
2024-05-09T03:24:07.603Z,97.45
2024-05-09T03:25:07.642Z,97.04
2024-05-09T03:26:07.629Z,96.94
2024-05-09T03:27:07.594Z,96.42
2024-05-09T03:28:07.648Z,96.63
2024-05-09T03:29:07.542Z,96.22
2024-05-09T03:30:09.687Z,96.53
2024-05-09T03:31:07.521Z,96.32
2024-05-09T03:32:07.578Z,96.42
2024-05-09T03:33:07.672Z,96.73
2024-05-09T03:34:07.594Z,96.63
2024-05-09T03:35:07.514Z,96.94
2024-05-09T03:36:09.775Z,96.94
2024-05-09T03:37:07.537Z,96.53
2024-05-09T03:38:07.479Z,96.53
2024-05-09T03:39:07.419Z,96.94
2024-05-09T03:40:11.785Z,96.94
2024-05-09T03:41:08.461Z,96.42
2024-05-09T03:42:07.411Z,96.12
2024-05-09T03:43:07.426Z,96.07
2024-05-09T03:44:07.465Z,96.58
2024-05-09T03:45:07.356Z,96.53
2024-05-09T03:46:07.345Z,96.48
2024-05-09T03:47:07.445Z,96.28
2024-05-09T03:48:07.704Z,96.28
2024-05-09T03:49:07.419Z,96.07
2024-05-09T03:50:12.139Z,95.97
2024-05-09T03:51:08.520Z,95.97
2024-05-09T03:52:07.372Z,96.07
2024-05-09T03:53:07.332Z,96.28
2024-05-09T03:54:07.256Z,96.28
2024-05-09T03:55:07.265Z,96.17
2024-05-09T03:56:07.299Z,95.97
2024-05-09T03:57:07.294Z,96.58
2024-05-09T03:58:07.212Z,96.38
2024-05-09T03:59:07.260Z,96.58
2024-05-09T04:00:12.202Z,96.38
2024-05-09T04:01:08.198Z,96.03
2024-05-09T04:02:07.237Z,95.82
2024-05-09T04:03:09.651Z,95.92
2024-05-09T04:04:07.186Z,96.38
2024-05-09T04:05:07.214Z,96.58
2024-05-09T04:06:07.138Z,96.64
2024-05-09T04:07:07.182Z,96.23
2024-05-09T04:08:07.292Z,96.44
2024-05-09T04:09:07.082Z,96.33
2024-05-09T04:10:11.101Z,96.13
2024-05-09T04:11:08.203Z,95.98
2024-05-09T04:12:07.116Z,95.92
2024-05-09T04:13:07.084Z,96.49
2024-05-09T04:14:07.113Z,96.29
2024-05-09T04:15:09.636Z,96.39
2024-05-09T04:16:08.007Z,96.39
2024-05-09T04:17:07.081Z,96.59
2024-05-09T04:18:07.327Z,96.29
2024-05-09T04:19:07.142Z,96.39
2024-05-09T04:20:10.529Z,96.34
2024-05-09T04:21:06.983Z,96.49
2024-05-09T04:22:06.938Z,96.49
2024-05-09T04:23:07.867Z,96.59
2024-05-09T04:24:06.912Z,96.55
2024-05-09T04:25:06.945Z,96.45
2024-05-09T04:26:06.991Z,96.25
2024-05-09T04:27:06.928Z,96.34
2024-05-09T04:28:06.874Z,96.14
2024-05-09T04:29:06.904Z,96.34
2024-05-09T04:30:10.097Z,95.94
2024-05-09T04:31:07.888Z,96.04
2024-05-09T04:32:06.899Z,96.20
2024-05-09T04:33:08.634Z,95.89
2024-05-09T04:34:06.987Z,95.79
2024-05-09T04:35:06.805Z,95.54
2024-05-09T04:36:06.776Z,95.44
2024-05-09T04:37:06.839Z,95.75
2024-05-09T04:38:07.016Z,95.80
2024-05-09T04:39:06.770Z,96.11
2024-05-09T04:40:11.164Z,95.80
2024-05-09T04:41:06.766Z,95.15
2024-05-09T04:42:06.710Z,95.65
2024-05-09T04:43:07.264Z,95.76
2024-05-09T04:44:06.733Z,95.81
2024-05-09T04:45:06.689Z,95.61
2024-05-09T04:46:06.663Z,95.06
2024-05-09T04:47:06.727Z,95.16
2024-05-09T04:48:06.758Z,95.32
2024-05-09T04:49:06.756Z,95.21
2024-05-09T04:50:11.383Z,94.66
2024-05-09T04:51:07.657Z,94.66
2024-05-09T04:52:06.600Z,95.28
2024-05-09T04:53:07.404Z,94.52
2024-05-09T04:54:08.483Z,94.62
2024-05-09T04:55:06.598Z,95.03
2024-05-09T04:56:06.677Z,95.23
2024-05-09T04:57:06.591Z,95.08
2024-05-09T04:58:06.558Z,95.18
2024-05-09T04:59:06.598Z,95.08
2024-05-09T05:00:09.450Z,95.18
2024-05-09T05:01:07.600Z,94.57
2024-05-09T05:02:06.574Z,94.63
2024-05-09T05:03:07.565Z,94.43
2024-05-09T05:04:06.543Z,94.43
2024-05-09T05:05:06.548Z,94.79
2024-05-09T05:06:06.477Z,94.48
2024-05-09T05:07:06.519Z,94.28
2024-05-09T05:08:06.462Z,93.93
2024-05-09T05:09:06.404Z,94.24
2024-05-09T05:10:09.329Z,93.77
2024-05-09T05:11:07.452Z,94.04
2024-05-09T05:12:06.686Z,94.24
2024-05-09T05:13:06.387Z,94.04
2024-05-09T05:14:06.378Z,93.73
2024-05-09T05:15:06.339Z,93.99
2024-05-09T05:16:06.344Z,93.99
2024-05-09T05:17:06.386Z,93.89
2024-05-09T05:18:06.562Z,93.99
2024-05-09T05:19:10.198Z,93.89
2024-05-09T05:20:08.639Z,93.68
2024-05-09T05:21:06.353Z,94.20
2024-05-09T05:22:06.265Z,94.05
2024-05-09T05:23:06.321Z,94.15
2024-05-09T05:24:06.235Z,93.84
2024-05-09T05:25:06.236Z,94.00
2024-05-09T05:26:06.295Z,94.10
2024-05-09T05:27:06.322Z,94.10
2024-05-09T05:28:06.196Z,93.80
2024-05-09T05:29:06.230Z,93.70
2024-05-09T05:30:09.555Z,93.80
2024-05-09T05:31:07.162Z,93.60
2024-05-09T05:32:06.280Z,93.35
2024-05-09T05:33:06.508Z,93.25
2024-05-09T05:34:06.165Z,93.45
2024-05-09T05:35:06.182Z,93.25
2024-05-09T05:36:06.095Z,93.21
2024-05-09T05:37:06.162Z,93.41
2024-05-09T05:38:06.136Z,93.51
2024-05-09T05:39:06.066Z,93.61
2024-05-09T05:40:09.409Z,93.91
2024-05-09T05:41:07.077Z,94.07
2024-05-09T05:42:06.095Z,93.77
2024-05-09T05:43:06.058Z,93.51
2024-05-09T05:44:06.218Z,93.87
2024-05-09T05:45:08.363Z,94.58
2024-05-09T05:46:06.037Z,94.38
2024-05-09T05:47:06.042Z,94.18
2024-05-09T05:48:06.796Z,94.48
2024-05-09T05:49:06.085Z,94.07
2024-05-09T05:50:14.485Z,93.97
2024-05-09T05:51:07.000Z,94.18
2024-05-09T05:52:05.950Z,93.97
2024-05-09T05:53:06.087Z,94.18
2024-05-09T05:54:05.891Z,94.13
2024-05-09T05:55:05.908Z,94.78
2024-05-09T05:56:05.994Z,94.58
2024-05-09T05:57:05.885Z,94.58
2024-05-09T05:58:05.880Z,94.48
2024-05-09T05:59:05.876Z,95.04
2024-05-09T06:00:09.536Z,94.74
2024-05-09T06:01:05.865Z,94.84
2024-05-09T06:02:05.925Z,94.64
2024-05-09T06:03:06.205Z,94.94
2024-05-09T06:04:05.855Z,94.90
2024-05-09T06:05:06.042Z,94.90
2024-05-09T06:06:05.926Z,94.59
2024-05-09T06:07:05.772Z,95.10
2024-05-09T06:08:05.795Z,94.39
2024-05-09T06:09:05.725Z,94.49
2024-05-09T06:10:09.199Z,94.79
2024-05-09T06:11:06.846Z,94.79
2024-05-09T06:12:05.803Z,95.30
2024-05-09T06:13:05.800Z,95.10
2024-05-09T06:14:05.743Z,95.46
2024-05-09T06:15:05.654Z,95.20
2024-05-09T06:16:05.648Z,94.79
2024-05-09T06:17:05.700Z,94.95
2024-05-09T06:18:05.945Z,95.46
2024-05-09T06:19:05.874Z,95.26
2024-05-09T06:21:05.699Z,95.11
2024-05-09T06:22:05.578Z,95.31
2024-05-09T06:23:05.917Z,95.17
2024-05-09T06:24:06.794Z,94.72
2024-05-09T06:25:05.585Z,94.96
2024-05-09T06:26:05.608Z,94.51
2024-05-09T06:27:05.517Z,94.51
2024-05-09T06:28:05.505Z,94.92
2024-05-09T06:29:05.559Z,94.78
2024-05-09T06:30:08.198Z,94.78
2024-05-09T06:31:05.490Z,95.18
2024-05-09T06:32:05.595Z,94.57
2024-05-09T06:33:06.083Z,94.78
2024-05-09T06:34:05.532Z,95.14
2024-05-09T06:35:05.484Z,95.58
2024-05-09T06:36:05.441Z,95.28
2024-05-09T06:37:05.445Z,95.14
2024-05-09T06:38:05.468Z,95.64
2024-05-09T06:39:05.380Z,95.28
2024-05-09T06:40:07.317Z,95.54
2024-05-09T06:41:05.409Z,95.98
2024-05-09T06:42:05.352Z,95.43
2024-05-09T06:43:05.342Z,95.43
2024-05-09T06:44:05.379Z,95.43
2024-05-09T06:45:05.319Z,95.14
2024-05-09T06:46:05.303Z,95.23
2024-05-09T06:47:05.401Z,95.49
2024-05-09T06:48:05.447Z,95.49
2024-05-09T06:49:05.789Z,95.55
2024-05-09T06:50:08.328Z,95.90
2024-05-09T06:51:06.325Z,96.36
2024-05-09T06:52:05.249Z,96.31
2024-05-09T06:53:05.345Z,96.21
2024-05-09T06:54:05.219Z,96.11
2024-05-09T06:55:05.229Z,95.56
2024-05-09T06:56:05.256Z,95.56
2024-05-09T06:57:05.177Z,95.96
2024-05-09T06:58:05.163Z,95.72
2024-05-09T06:59:05.222Z,95.72
2024-05-09T07:00:08.197Z,95.97
2024-05-09T07:01:06.232Z,95.67
2024-05-09T07:02:05.200Z,95.37
2024-05-09T07:03:05.994Z,95.12
2024-05-09T07:04:05.229Z,95.12
2024-05-09T07:05:05.177Z,95.12
2024-05-09T07:06:05.341Z,95.48
2024-05-09T07:07:05.079Z,95.38
2024-05-09T07:08:05.167Z,95.18
2024-05-09T07:09:05.108Z,94.78
2024-05-09T07:10:07.685Z,95.03
2024-05-09T07:11:05.139Z,94.63
2024-05-09T07:12:05.179Z,94.59
2024-05-09T07:13:05.007Z,95.23
2024-05-09T07:14:05.026Z,95.13
2024-05-09T07:15:04.974Z,95.03
2024-05-09T07:16:04.968Z,95.23
2024-05-09T07:17:05.067Z,95.03
2024-05-09T07:18:05.047Z,95.53
2024-05-09T07:19:05.253Z,95.59
2024-05-09T07:20:06.997Z,95.23
2024-05-09T07:21:04.968Z,96.14
2024-05-09T07:22:04.937Z,95.73
2024-05-09T07:23:05.028Z,95.84
2024-05-09T07:24:04.877Z,95.33
2024-05-09T07:25:05.067Z,95.53
2024-05-09T07:26:04.880Z,95.33
2024-05-09T07:27:04.971Z,95.64
2024-05-09T07:28:04.825Z,95.53
2024-05-09T07:29:04.905Z,95.73
2024-05-09T07:31:04.820Z,95.73
2024-05-09T07:32:04.832Z,96.24
2024-05-09T07:33:04.935Z,96.14
2024-05-09T07:34:04.837Z,96.24
2024-05-09T07:35:04.747Z,96.24
2024-05-09T07:36:04.768Z,95.94
2024-05-09T07:37:04.743Z,95.49
2024-05-09T07:38:04.820Z,95.53
2024-05-09T07:39:04.704Z,95.49
2024-05-09T07:40:07.390Z,95.49
2024-05-09T07:41:04.784Z,95.49
2024-05-09T07:42:04.672Z,95.34
2024-05-09T07:43:04.712Z,95.24
2024-05-09T07:44:04.711Z,95.14
2024-05-09T07:45:21.457Z,95.40
2024-05-09T07:47:04.456Z,95.24
2024-05-09T07:48:14.419Z,95.20
2024-05-09T07:50:53.363Z,95.45
2024-05-09T07:52:01.246Z,95.25
2024-05-09T07:53:36.269Z,95.25
2024-05-09T07:54:06.468Z,95.21
2024-05-09T07:55:04.705Z,95.31
2024-05-09T07:56:04.689Z,95.31
2024-05-09T07:57:04.607Z,95.10
2024-05-09T07:58:04.660Z,94.96
2024-05-09T07:59:04.479Z,95.26
2024-05-09T08:00:04.652Z,95.26
2024-05-09T08:01:04.611Z,95.06
2024-05-09T08:02:04.614Z,95.21
2024-05-09T08:03:04.509Z,95.21
2024-05-09T08:04:04.575Z,95.01
2024-05-09T08:05:04.470Z,95.01
2024-05-09T08:06:04.431Z,95.21
2024-05-09T08:07:04.431Z,95.07
2024-05-09T08:08:04.395Z,95.17
2024-05-09T08:09:08.130Z,95.07
2024-05-09T08:10:08.160Z,94.87
2024-05-09T08:11:05.437Z,94.87
2024-05-09T08:12:04.337Z,95.07
2024-05-09T08:13:04.531Z,95.07
2024-05-09T08:14:04.329Z,94.87
2024-05-09T08:15:04.294Z,95.17
2024-05-09T08:16:04.345Z,95.23
2024-05-09T08:17:04.335Z,95.32
2024-05-09T08:18:04.560Z,95.43
2024-05-09T08:19:04.391Z,95.43
2024-05-09T08:20:05.585Z,95.43
2024-05-09T08:21:04.227Z,95.43
2024-05-09T08:22:04.262Z,95.43
2024-05-09T08:23:04.462Z,95.83
2024-05-09T08:24:04.190Z,95.83
2024-05-09T08:25:04.254Z,95.73
2024-05-09T08:26:04.251Z,95.73
2024-05-09T08:27:04.163Z,95.73
2024-05-09T08:28:04.372Z,95.68
2024-05-09T08:29:04.207Z,95.68
2024-05-09T08:30:04.896Z,95.78
2024-05-09T08:31:06.872Z,95.78
2024-05-09T08:32:04.221Z,95.58
2024-05-09T08:33:04.325Z,95.38
2024-05-09T08:34:04.342Z,95.38
2024-05-09T08:35:04.135Z,95.68
2024-05-09T08:36:04.069Z,95.78
2024-05-09T08:37:12.868Z,95.68
2024-05-09T08:38:05.129Z,95.78
2024-05-09T08:39:04.021Z,95.18
2024-05-09T08:40:04.137Z,95.38
2024-05-09T08:41:04.055Z,95.73
2024-05-09T08:42:03.992Z,95.84
2024-05-09T08:43:04.074Z,95.73
2024-05-09T08:44:03.966Z,95.73
2024-05-09T08:45:03.967Z,95.73
2024-05-09T08:46:04.045Z,95.34
2024-05-09T08:47:03.980Z,95.43
2024-05-09T08:48:04.084Z,95.73
2024-05-09T08:49:04.158Z,95.73
2024-05-09T08:50:05.123Z,95.23
2024-05-09T08:51:03.927Z,95.23
2024-05-09T08:52:03.898Z,95.34
2024-05-09T08:53:03.972Z,95.29
2024-05-09T08:54:03.861Z,95.49
2024-05-09T08:55:04.095Z,95.29
2024-05-09T08:56:03.837Z,95.29
2024-05-09T08:57:03.826Z,95.69
2024-05-09T08:58:03.881Z,95.59
2024-05-09T08:59:03.825Z,95.54
2024-05-09T09:00:06.276Z,95.25
2024-05-09T09:01:03.956Z,95.45
2024-05-09T09:02:04.034Z,95.25
2024-05-09T09:03:03.842Z,95.25
2024-05-09T09:04:04.121Z,95.64
2024-05-09T09:05:03.980Z,95.45
2024-05-09T09:06:03.725Z,95.69
2024-05-09T09:07:03.834Z,95.64
2024-05-09T09:08:03.709Z,95.54
2024-05-09T09:09:03.690Z,95.04
2024-05-09T09:10:05.682Z,95.15
2024-05-09T09:11:03.896Z,95.15
2024-05-09T09:12:03.699Z,95.04
2024-05-09T09:13:03.787Z,95.54
2024-05-09T09:14:03.640Z,95.54
2024-05-09T09:15:03.617Z,95.54
2024-05-09T09:16:03.911Z,95.25
2024-05-09T09:17:03.640Z,95.45
2024-05-09T09:18:03.765Z,95.34
2024-05-09T09:19:03.783Z,95.54
2024-05-09T09:20:04.487Z,95.25
2024-05-09T09:21:03.620Z,95.54
2024-05-09T09:22:03.563Z,95.04
2024-05-09T09:23:03.782Z,95.45
2024-05-09T09:24:03.520Z,94.90
2024-05-09T09:25:03.547Z,95.10
2024-05-09T09:26:03.492Z,95.10
2024-05-09T09:27:03.476Z,95.70
2024-05-09T09:28:03.512Z,95.70
2024-05-09T09:29:03.484Z,95.40
2024-05-09T09:30:03.631Z,95.60
2024-05-09T09:31:03.650Z,95.60
2024-05-09T09:32:03.422Z,95.70
2024-05-09T09:33:03.751Z,95.90
2024-05-09T09:34:03.496Z,95.90
2024-05-09T09:35:03.547Z,95.90
2024-05-09T09:36:03.395Z,95.90
2024-05-09T09:37:03.519Z,96.20
2024-05-09T09:38:03.408Z,95.60
2024-05-09T09:39:03.344Z,95.60
2024-05-09T09:40:03.842Z,95.60
2024-05-09T09:41:03.355Z,95.60
2024-05-09T09:42:03.300Z,95.90
2024-05-09T09:43:03.428Z,95.60
2024-05-09T09:44:03.282Z,96.00
2024-05-09T09:45:05.504Z,96.00
2024-05-09T09:46:03.300Z,95.65
2024-05-09T09:47:03.307Z,95.75
2024-05-09T09:48:03.370Z,95.75
2024-05-09T09:49:03.364Z,95.65
2024-05-09T09:50:07.022Z,95.65
2024-05-09T09:51:03.202Z,96.05
2024-05-09T09:52:03.229Z,95.65
2024-05-09T09:53:03.228Z,95.75
2024-05-09T09:54:03.169Z,96.05
2024-05-09T09:55:03.323Z,96.15
2024-05-09T09:56:03.158Z,96.25
2024-05-09T09:57:03.142Z,96.01
2024-05-09T09:58:03.204Z,96.11
2024-05-09T09:59:03.146Z,96.01
2024-05-09T10:00:04.308Z,96.01
2024-05-09T10:01:03.357Z,96.20
2024-05-09T10:02:04.092Z,96.01
2024-05-09T10:03:03.270Z,96.01
2024-05-09T10:04:03.151Z,96.11
2024-05-09T10:05:03.354Z,96.20
2024-05-09T10:06:03.839Z,95.61
2024-05-09T10:07:03.063Z,96.01
2024-05-09T10:08:03.028Z,95.71
2024-05-09T10:09:04.361Z,95.61
2024-05-09T10:10:03.364Z,95.71
2024-05-09T10:11:03.169Z,95.81
2024-05-09T10:12:03.074Z,95.61
2024-05-09T10:13:03.081Z,96.20
2024-05-09T10:14:02.948Z,96.16
2024-05-09T10:15:05.234Z,96.01
2024-05-09T10:16:02.936Z,96.16
2024-05-09T10:17:02.994Z,96.16
2024-05-09T10:18:03.153Z,95.96
2024-05-09T10:19:03.026Z,95.56
2024-05-09T10:20:04.084Z,95.66
2024-05-09T10:21:02.892Z,95.66
2024-05-09T10:22:02.901Z,95.56
2024-05-09T10:23:02.880Z,95.56
2024-05-09T10:24:02.879Z,96.06
2024-05-09T10:25:04.949Z,96.06
2024-05-09T10:26:03.097Z,96.16
2024-05-09T10:27:02.809Z,96.06
2024-05-09T10:28:02.887Z,96.06
2024-05-09T10:29:02.819Z,96.11
2024-05-09T10:30:05.235Z,96.11
2024-05-09T10:31:02.827Z,96.01
2024-05-09T10:32:02.742Z,95.81
2024-05-09T10:33:02.987Z,95.51
2024-05-09T10:34:02.992Z,95.81
2024-05-09T10:35:02.972Z,95.62
2024-05-09T10:36:03.310Z,95.77
2024-05-09T10:37:04.907Z,95.51
2024-05-09T10:38:02.713Z,95.77
2024-05-09T10:39:02.672Z,95.87
2024-05-09T10:40:04.147Z,95.37
2024-05-09T10:41:02.821Z,95.57
2024-05-09T10:42:02.636Z,95.77
2024-05-09T10:43:05.860Z,95.83
2024-05-09T10:44:02.617Z,95.47
2024-05-09T10:45:02.623Z,95.53
2024-05-09T10:46:02.690Z,95.67
2024-05-09T10:47:02.714Z,95.57
2024-05-09T10:48:02.990Z,96.07
2024-05-09T10:49:06.320Z,95.57
2024-05-09T10:50:04.935Z,95.42
2024-05-09T10:51:02.546Z,95.67
2024-05-09T10:52:02.643Z,95.53
2024-05-09T10:53:02.609Z,95.57
2024-05-09T10:54:02.512Z,95.53
2024-05-09T10:55:05.444Z,95.53
2024-05-09T10:56:02.584Z,95.53
2024-05-09T10:57:02.462Z,95.42
2024-05-09T10:58:02.556Z,95.42
2024-05-09T10:59:02.463Z,95.67
2024-05-09T11:00:02.447Z,95.57
2024-05-09T11:01:06.286Z,95.32
2024-05-09T11:02:02.596Z,95.42
2024-05-09T11:03:02.527Z,95.42
2024-05-09T11:04:02.645Z,95.72
2024-05-09T11:05:02.658Z,95.62
2024-05-09T11:06:02.397Z,95.62
2024-05-09T11:07:05.283Z,95.32
2024-05-09T11:08:02.344Z,95.53
2024-05-09T11:09:02.355Z,95.42
2024-05-09T11:10:02.399Z,95.53
2024-05-09T11:11:02.350Z,95.42
2024-05-09T11:12:02.352Z,95.53
2024-05-09T11:13:02.357Z,95.83
2024-05-09T11:14:02.280Z,95.32
2024-05-09T11:15:02.268Z,95.62
2024-05-09T11:16:02.389Z,95.62
2024-05-09T11:17:02.407Z,95.58
2024-05-09T11:18:02.416Z,95.53
2024-05-09T11:19:02.449Z,95.32
2024-05-09T11:20:03.246Z,95.38
2024-05-09T11:21:02.235Z,95.72
2024-05-09T11:22:02.331Z,95.42
2024-05-09T11:23:02.268Z,95.62
2024-05-09T11:24:02.191Z,95.58
2024-05-09T11:25:02.255Z,95.68
2024-05-09T11:26:02.149Z,95.72
2024-05-09T11:27:02.144Z,95.72
2024-05-09T11:28:02.198Z,95.98
2024-05-09T11:29:02.208Z,95.87
2024-05-09T11:30:02.371Z,95.58
2024-05-09T11:31:02.191Z,95.58
2024-05-09T11:32:02.134Z,95.98
2024-05-09T11:33:02.149Z,95.92
2024-05-09T11:34:02.213Z,95.48
2024-05-09T11:35:02.087Z,95.68
2024-05-09T11:36:02.045Z,95.87
2024-05-09T11:37:02.106Z,95.68
2024-05-09T11:38:02.049Z,95.87
2024-05-09T11:39:02.002Z,95.48
2024-05-09T11:40:02.112Z,95.58
2024-05-09T11:41:02.021Z,95.87
2024-05-09T11:42:01.962Z,95.58
2024-05-09T11:43:02.044Z,95.68
2024-05-09T11:44:01.943Z,95.78
2024-05-09T11:45:01.945Z,95.68
2024-05-09T11:46:01.959Z,95.87
2024-05-09T11:47:01.972Z,95.98
2024-05-09T11:48:02.223Z,95.98
2024-05-09T11:49:02.176Z,95.98
2024-05-09T11:50:01.999Z,95.78
2024-05-09T11:51:01.861Z,95.78
2024-05-09T11:52:01.929Z,95.78
2024-05-09T11:53:02.020Z,95.78
2024-05-09T11:54:01.845Z,95.98
2024-05-09T11:55:01.914Z,95.73
2024-05-09T11:56:01.834Z,95.73
2024-05-09T11:57:01.803Z,95.73
2024-05-09T11:58:01.830Z,95.63
2024-05-09T11:59:01.830Z,95.63
2024-05-09T12:00:01.769Z,95.14
2024-05-09T12:01:01.905Z,95.43
2024-05-09T12:02:01.905Z,95.23
2024-05-09T12:03:01.752Z,95.33
2024-05-09T12:04:02.125Z,95.33
2024-05-09T12:05:01.840Z,95.53
2024-05-09T12:06:01.750Z,95.23
2024-05-09T12:07:01.738Z,95.73
2024-05-09T12:08:01.809Z,95.43
2024-05-09T12:09:01.678Z,95.53
2024-05-09T12:10:01.700Z,95.73
2024-05-09T12:11:01.826Z,95.73
2024-05-09T12:12:01.622Z,95.73
2024-05-09T12:13:01.803Z,95.43
2024-05-09T12:14:01.605Z,95.87
2024-05-09T12:15:01.588Z,95.53
2024-05-09T12:16:01.728Z,95.73
2024-05-09T12:17:01.678Z,95.83
2024-05-09T12:18:03.781Z,95.93
2024-05-09T12:19:01.644Z,95.63
2024-05-09T12:20:01.534Z,95.63
2024-05-09T12:21:01.539Z,96.03
2024-05-09T12:22:01.588Z,95.93
2024-05-09T12:23:01.557Z,95.83
2024-05-09T12:24:01.489Z,95.93
2024-05-09T12:25:01.509Z,95.93
2024-05-09T12:26:01.513Z,95.83
2024-05-09T12:27:01.456Z,95.93
2024-05-09T12:28:01.701Z,95.83
2024-05-09T12:29:01.490Z,95.73
2024-05-09T12:30:01.458Z,96.23
2024-05-09T12:31:01.428Z,95.98
2024-05-09T12:32:01.453Z,96.37
2024-05-09T12:33:01.540Z,96.08
2024-05-09T12:34:01.446Z,96.23
2024-05-09T12:35:01.406Z,96.53
2024-05-09T12:36:01.421Z,96.43
2024-05-09T12:37:01.396Z,96.62
2024-05-09T12:38:01.327Z,96.62
2024-05-09T12:39:01.318Z,96.73
2024-05-09T12:40:01.399Z,96.67
2024-05-09T12:41:01.396Z,96.43
2024-05-09T12:42:01.290Z,96.43
2024-05-09T12:43:01.401Z,96.43
2024-05-09T12:44:01.261Z,96.53
2024-05-09T12:45:01.277Z,96.43
2024-05-09T12:46:01.363Z,96.53
2024-05-09T12:47:01.291Z,96.62
2024-05-09T12:48:01.386Z,96.43
2024-05-09T12:49:01.527Z,96.43
2024-05-09T12:50:01.383Z,96.43
2024-05-09T12:51:01.179Z,96.33
2024-05-09T12:52:01.244Z,96.23
2024-05-09T12:53:01.698Z,96.33
2024-05-09T12:54:01.198Z,96.23
2024-05-09T12:55:01.275Z,95.98
2024-05-09T12:56:03.013Z,96.33
2024-05-09T12:57:01.118Z,96.23